Time;durP1;ratioP1;P1;durP2;ratioP2;P2;SDS_P1;SDS_P2;PMS_P1;PMS_P2;Temp;Humidity;BMP_temperature;BMP_pressure;BME280_temperature;BME280_humidity;BME280_pressure;Samples;Min_cycle;Max_cycle;Signal;HPM_P1;HPM_P2
2022/07/26 00:01:55;;;;;;;13.40;6.83;;;;;;;20.80;61.13;99359.06;4199118;28;20261;-64
2022/07/26 00:04:22;;;;;;;13.00;7.00;;;;;;;20.77;61.52;99351.44;4206726;28;20229;-63
2022/07/26 00:07:06;;;;;;;15.40;7.53;;;;;;;20.68;61.67;99358.28;4197212;28;20367;-64
2022/07/26 00:09:33;;;;;;;16.63;7.23;;;;;;;20.66;61.75;99350.41;4184827;28;20237;-63
2022/07/26 00:11:59;;;;;;;12.93;8.00;;;;;;;20.61;61.78;99348.41;4196527;28;20245;-62
2022/07/26 00:14:26;;;;;;;14.80;8.57;;;;;;;20.56;62.14;99333.97;4191961;28;20232;-63
2022/07/26 00:16:52;;;;;;;15.37;8.03;;;;;;;20.55;62.01;99332.28;4206473;28;20228;-62
2022/07/26 00:19:19;;;;;;;12.17;8.00;;;;;;;20.49;62.22;99331.34;4198102;28;20995;-64
2022/07/26 00:21:46;;;;;;;14.43;8.17;;;;;;;20.50;62.44;99334.88;4191414;28;22074;-63
2022/07/26 00:24:12;;;;;;;15.27;7.43;;;;;;;20.55;62.12;99329.56;4186554;28;20612;-62
2022/07/26 00:26:39;;;;;;;12.77;7.47;;;;;;;20.52;62.11;99333.56;4195652;28;20253;-62
2022/07/26 00:29:06;;;;;;;11.13;7.20;;;;;;;20.49;62.19;99339.47;4195321;28;20445;-61
2022/07/26 00:31:33;;;;;;;13.67;7.40;;;;;;;20.53;61.89;99324.41;4201114;28;20239;-62
2022/07/26 00:34:00;;;;;;;13.07;7.13;;;;;;;20.56;62.13;99317.75;4199735;28;21719;-62
2022/07/26 00:36:27;;;;;;;11.10;6.83;;;;;;;20.55;62.00;99316.88;4197390;28;20298;-63
2022/07/26 00:38:54;;;;;;;14.83;6.27;;;;;;;20.60;61.83;99327.00;4196527;28;20229;-64
2022/07/26 00:41:20;;;;;;;11.87;6.67;;;;;;;20.62;61.75;99317.59;4197749;28;20233;-62
2022/07/26 00:43:57;;;;;;;10.13;6.57;;;;;;;20.70;61.74;99321.00;4202120;28;21669;-64
2022/07/26 00:46:24;;;;;;;13.00;6.63;;;;;;;20.54;62.29;99317.13;4201717;28;20235;-62
2022/07/26 00:48:51;;;;;;;9.73;6.67;;;;;;;20.37;62.91;99303.50;4190023;28;21793;-63
2022/07/26 00:51:19;;;;;;;11.83;6.30;;;;;;;20.38;63.28;99310.56;4194944;28;20226;-63
2022/07/26 00:53:46;;;;;;;13.40;6.40;;;;;;;20.33;63.39;99308.56;4196477;28;20900;-61
2022/07/26 00:56:14;;;;;;;8.27;6.00;;;;;;;20.35;63.46;99305.66;4203150;28;20235;-62
2022/07/26 00:58:41;;;;;;;13.10;7.00;;;;;;;20.28;63.98;99305.78;4198110;28;20225;-63
2022/07/26 01:01:09;;;;;;;10.20;7.10;;;;;;;20.30;63.97;99302.81;4185113;28;20255;-62
2022/07/26 01:03:54;;;;;;;11.33;6.47;;;;;;;20.13;64.62;99303.53;4181412;28;20338;-63
2022/07/26 01:06:20;;;;;;;8.83;6.03;;;;;;;20.01;65.32;99306.22;4196677;28;21054;-64
2022/07/26 01:08:52;;;;;;;9.07;6.13;;;;;;;20.05;65.46;99303.88;4180801;28;20256;-62
2022/07/26 01:11:19;;;;;;;10.43;6.73;;;;;;;19.98;65.82;99298.59;4195505;28;20491;-62
2022/07/26 01:13:47;;;;;;;9.90;5.90;;;;;;;19.89;66.11;99294.59;4181844;28;21493;-61
2022/07/26 01:16:14;;;;;;;11.57;6.60;;;;;;;19.90;66.17;99287.31;4192808;28;20251;-63
2022/07/26 01:18:40;;;;;;;9.07;6.30;;;;;;;19.80;66.81;99282.50;4186128;28;20240;-62
2022/07/26 01:21:09;;;;;;;11.20;6.13;;;;;;;19.76;67.08;99281.31;4179823;28;20305;-65
2022/07/26 01:23:40;;;;;;;13.30;6.33;;;;;;;19.77;66.98;99286.50;4197747;28;21364;-65
2022/07/26 01:26:07;;;;;;;18.50;6.33;;;;;;;19.70;67.27;99293.06;4186355;28;23710;-62
2022/07/26 01:28:38;;;;;;;11.53;5.97;;;;;;;19.68;67.76;99281.66;4185333;28;20439;-62
2022/07/26 01:31:05;;;;;;;14.00;6.13;;;;;;;19.71;68.06;99290.13;4187008;28;20249;-63
2022/07/26 01:33:33;;;;;;;11.10;6.20;;;;;;;19.64;67.90;99297.47;4187423;28;21695;-63
2022/07/26 01:36:00;;;;;;;15.87;6.20;;;;;;;19.68;67.84;99303.25;4187045;28;20229;-63
2022/07/26 01:38:27;;;;;;;12.43;5.90;;;;;;;19.69;67.90;99294.09;4188911;28;22039;-61
2022/07/26 01:40:53;;;;;;;9.80;6.23;;;;;;;19.63;68.10;99298.53;4190824;28;20252;-62
2022/07/26 01:43:20;;;;;;;13.00;6.10;;;;;;;19.64;68.13;99293.97;4194743;28;20237;-63
2022/07/26 01:45:46;;;;;;;11.80;5.97;;;;;;;19.51;69.13;99285.03;4184414;28;20243;-60
2022/07/26 01:48:13;;;;;;;8.50;5.87;;;;;;;19.48;68.87;99295.44;4186109;28;20229;-60
2022/07/26 01:50:40;;;;;;;8.63;6.10;;;;;;;19.39;69.78;99298.50;4186520;28;25615;-61
2022/07/26 01:53:07;;;;;;;11.67;6.40;;;;;;;19.42;69.47;99301.78;4186396;28;20302;-70
2022/07/26 01:55:34;;;;;;;8.47;6.50;;;;;;;19.30;70.06;99291.78;4187346;28;20358;-62
2022/07/26 01:58:04;;;;;;;10.27;5.73;;;;;;;19.24;70.36;99289.97;4187956;28;20323;-62
2022/07/26 02:00:32;;;;;;;9.27;5.67;;;;;;;19.27;70.47;99284.16;4190520;28;20447;-62
2022/07/26 02:02:59;;;;;;;8.97;5.93;;;;;;;19.19;70.70;99284.47;4183752;28;20244;-64
2022/07/26 02:05:26;;;;;;;10.70;6.10;;;;;;;19.22;70.59;99275.91;4196120;28;22613;-63
2022/07/26 02:07:53;;;;;;;9.47;5.70;;;;;;;19.27;70.39;99270.66;4184797;28;20281;-61
2022/07/26 02:10:22;;;;;;;9.17;5.73;;;;;;;19.13;70.96;99271.91;4197502;28;20274;-61
2022/07/26 02:12:48;;;;;;;10.93;6.33;;;;;;;18.98;71.78;99262.34;4196623;28;20243;-63
2022/07/26 02:15:15;;;;;;;11.60;5.67;;;;;;;19.03;71.75;99261.66;4197720;28;20260;-63
2022/07/26 02:17:42;;;;;;;12.23;6.00;;;;;;;19.04;71.64;99265.19;4188581;28;20233;-61
2022/07/26 02:20:08;;;;;;;11.60;5.83;;;;;;;19.11;71.40;99258.66;4189228;28;21447;-65
2022/07/26 02:22:35;;;;;;;9.30;6.07;;;;;;;19.01;71.43;99258.41;4202789;28;26423;-60
2022/07/26 02:25:02;;;;;;;16.03;6.03;;;;;;;18.94;71.92;99255.78;4189737;28;20459;-65
2022/07/26 02:27:31;;;;;;;8.10;6.07;;;;;;;18.95;71.56;99251.22;4194874;28;20634;-62
2022/07/26 02:29:57;;;;;;;11.30;6.40;;;;;;;18.83;72.27;99251.16;4191118;28;20236;-62
2022/07/26 02:32:24;;;;;;;9.63;6.00;;;;;;;18.93;71.78;99253.31;4200854;28;20648;-62
2022/07/26 02:34:50;;;;;;;13.03;5.60;;;;;;;18.88;72.11;99254.00;4212533;28;20236;-63
2022/07/26 02:37:17;;;;;;;10.77;5.80;;;;;;;18.81;72.44;99252.44;4197632;28;20605;-64
2022/07/26 02:39:43;;;;;;;8.13;5.67;;;;;;;18.79;72.17;99243.75;4204246;28;20229;-59
2022/07/26 02:42:10;;;;;;;11.00;5.60;;;;;;;18.72;73.01;99239.22;4195540;28;22609;-62
2022/07/26 02:44:37;;;;;;;8.97;5.53;;;;;;;18.77;72.54;99242.09;4178553;28;20237;-62
2022/07/26 02:47:03;;;;;;;13.37;6.27;;;;;;;18.78;72.33;99237.56;4194508;28;20242;-62
2022/07/26 02:49:30;;;;;;;9.03;5.73;;;;;;;18.81;72.48;99239.78;4194110;28;20233;-62
2022/07/26 02:51:56;;;;;;;9.30;5.33;;;;;;;18.73;72.48;99227.41;4191287;28;21872;-63
2022/07/26 02:54:23;;;;;;;11.33;5.47;;;;;;;18.70;72.55;99218.97;4189646;28;20328;-59
2022/07/26 02:56:49;;;;;;;11.53;6.03;;;;;;;18.73;72.07;99215.78;4216943;28;20235;-61
2022/07/26 02:59:16;;;;;;;9.97;5.40;;;;;;;18.71;72.64;99213.34;4198395;28;22245;-62
2022/07/26 03:01:43;;;;;;;10.87;5.90;;;;;;;18.79;72.13;99211.41;4197553;28;20240;-60
2022/07/26 03:04:09;;;;;;;10.23;5.87;;;;;;;18.70;72.95;99213.56;4225363;28;20241;-61
2022/07/26 03:06:37;;;;;;;10.00;6.00;;;;;;;18.66;72.70;99212.38;4216953;28;21170;-61
2022/07/26 03:09:03;;;;;;;9.40;5.70;;;;;;;18.69;72.31;99211.94;4205446;28;20370;-63
2022/07/26 03:11:33;;;;;;;11.80;6.07;;;;;;;18.64;72.29;99215.31;4204941;28;20368;-62
2022/07/26 03:14:00;;;;;;;13.67;5.57;;;;;;;18.68;72.30;99216.50;4213836;28;22710;-63
2022/07/26 03:16:27;;;;;;;10.73;5.47;;;;;;;18.78;71.96;99221.38;4211970;28;21038;-62
2022/07/26 03:18:56;;;;;;;7.80;5.70;;;;;;;18.77;72.08;99219.72;4213181;28;20236;-63
2022/07/26 03:21:22;;;;;;;9.20;5.53;;;;;;;18.83;71.94;99212.59;4239908;28;20334;-62
2022/07/26 03:23:49;;;;;;;12.00;5.70;;;;;;;18.86;71.19;99221.03;4209597;28;20241;-61
2022/07/26 03:26:16;;;;;;;9.10;5.83;;;;;;;18.86;71.39;99222.94;4199516;28;20576;-62
2022/07/26 03:28:43;;;;;;;7.97;5.40;;;;;;;18.98;70.45;99221.91;4205545;28;21192;-62
2022/07/26 03:31:11;;;;;;;13.13;5.67;;;;;;;19.00;70.57;99227.06;4206988;28;20281;-62
2022/07/26 03:33:39;;;;;;;10.30;5.53;;;;;;;19.13;69.78;99231.47;4199605;28;20419;-62
2022/07/26 03:36:06;;;;;;;9.20;5.40;;;;;;;19.10;69.77;99232.72;4188361;28;21739;-63
2022/07/26 03:38:38;;;;;;;10.03;5.17;;;;;;;19.17;68.95;99230.78;4211937;28;20232;-62
2022/07/26 03:41:04;;;;;;;13.20;5.43;;;;;;;19.21;68.33;99222.22;4203881;28;26500;-62
2022/07/26 03:43:31;;;;;;;8.00;5.10;;;;;;;19.30;68.31;99218.13;4200769;28;21819;-61
2022/07/26 03:46:02;;;;;;;10.50;4.87;;;;;;;19.32;68.80;99214.13;4214157;28;21251;-60
2022/07/26 03:48:30;;;;;;;9.63;5.10;;;;;;;19.30;68.97;99208.16;4196361;28;20291;-60
2022/07/26 03:50:56;;;;;;;8.00;5.13;;;;;;;19.34;68.78;99197.72;4213119;28;20229;-62
2022/07/26 03:53:23;;;;;;;12.53;5.20;;;;;;;19.33;68.59;99201.47;4202104;28;20248;-62
2022/07/26 03:58:35;;;;;;;8.73;5.67;;;;;;;19.34;68.93;99197.72;4200349;28;20232;-61
2022/07/26 04:01:03;;;;;;;8.00;5.50;;;;;;;19.37;69.37;99208.06;4201675;28;20237;-61
2022/07/26 04:03:29;;;;;;;13.20;5.77;;;;;;;19.42;69.30;99200.06;4205529;28;22030;-63
2022/07/26 04:05:56;;;;;;;14.97;5.70;;;;;;;19.46;69.06;99192.34;4200981;28;20231;-60
2022/07/26 04:08:23;;;;;;;11.00;6.57;;;;;;;19.55;68.85;99180.13;4207465;28;20234;-60
2022/07/26 04:10:50;;;;;;;10.43;5.50;;;;;;;19.61;69.06;99187.28;4201091;28;20236;-61
2022/07/26 04:13:17;;;;;;;12.27;5.57;;;;;;;19.67;68.63;99191.75;4208534;28;20671;-60
2022/07/26 04:15:44;;;;;;;8.07;5.83;;;;;;;19.76;67.65;99189.53;4202509;28;20240;-59
2022/07/26 04:18:12;;;;;;;11.47;5.10;;;;;;;19.76;67.91;99187.69;4203521;28;21579;-62
2022/07/26 04:20:39;;;;;;;10.17;5.50;;;;;;;19.84;67.60;99189.19;4206767;28;23966;-61
2022/07/26 04:23:06;;;;;;;9.70;5.70;;;;;;;19.96;66.94;99181.09;4196444;28;20236;-61
2022/07/26 04:25:38;;;;;;;10.07;5.17;;;;;;;20.06;66.94;99183.19;4193172;28;21646;-62
2022/07/26 04:28:07;;;;;;;11.97;5.30;;;;;;;20.14;66.16;99186.34;4217006;28;20291;-61
2022/07/26 04:30:34;;;;;;;17.17;5.50;;;;;;;20.21;66.33;99181.63;4202832;28;21181;-62
2022/07/26 04:33:00;;;;;;;11.90;5.60;;;;;;;20.18;66.32;99184.81;4196250;28;20343;-61
2022/07/26 04:35:27;;;;;;;14.13;5.57;;;;;;;20.26;65.94;99178.19;4212858;28;20271;-62
2022/07/26 04:37:54;;;;;;;10.87;5.30;;;;;;;20.45;64.76;99178.84;4212956;28;23355;-62
2022/07/26 04:40:21;;;;;;;10.80;5.90;;;;;;;20.48;65.10;99189.16;4208335;28;21735;-59
2022/07/26 04:42:50;;;;;;;11.50;5.70;;;;;;;20.60;65.16;99195.41;4195627;28;20307;-61
2022/07/26 04:45:17;;;;;;;13.07;6.20;;;;;;;20.76;63.81;99198.38;4199264;28;23649;-63
2022/07/26 04:47:48;;;;;;;8.80;5.00;;;;;;;20.89;62.75;99189.97;4204700;28;20236;-61
2022/07/26 04:50:16;;;;;;;11.80;5.83;;;;;;;20.81;63.78;99182.25;4197332;28;20237;-59
2022/07/26 04:52:42;;;;;;;17.50;5.90;;;;;;;20.87;64.08;99181.28;4202374;28;20747;-61
2022/07/26 04:55:09;;;;;;;9.30;4.73;;;;;;;20.95;63.62;99191.69;4206515;28;20240;-60
2022/07/26 04:57:36;;;;;;;15.63;5.43;;;;;;;21.08;62.95;99193.28;4206708;28;20970;-62
2022/07/26 05:00:08;;;;;;;9.67;5.30;;;;;;;21.15;62.17;99190.41;4206131;28;20253;-62
2022/07/26 05:02:49;;;;;;;8.30;5.07;;;;;;;21.12;62.06;99186.31;4207864;28;20263;-62
2022/07/26 05:05:15;;;;;;;8.70;5.43;;;;;;;21.22;62.13;99180.25;4193840;28;22401;-61
2022/07/26 05:07:43;;;;;;;14.77;5.07;;;;;;;21.24;62.26;99183.53;4189299;28;20284;-62
2022/07/26 05:10:10;;;;;;;10.70;5.20;;;;;;;21.20;62.51;99185.91;4200007;28;21854;-60
2022/07/26 05:12:37;;;;;;;8.73;5.20;;;;;;;21.35;61.88;99179.91;4198420;28;20285;-62
2022/07/26 05:15:06;;;;;;;10.07;5.17;;;;;;;21.47;61.12;99167.16;4198435;28;20355;-63
2022/07/26 05:17:40;;;;;;;14.30;5.50;;;;;;;21.64;61.20;99171.72;4203532;28;20951;-63
2022/07/26 05:20:08;;;;;;;8.27;5.20;;;;;;;21.70;60.62;99168.84;4198321;28;20299;-61
2022/07/26 05:22:35;;;;;;;8.50;4.60;;;;;;;21.76;60.90;99175.16;4198464;28;20251;-60
2022/07/26 05:25:04;;;;;;;10.53;4.53;;;;;;;21.86;60.16;99164.44;4199965;28;20240;-63
2022/07/26 05:27:30;;;;;;;8.67;4.70;;;;;;;21.93;59.26;99167.78;4208251;28;20236;-63
2022/07/26 05:29:57;;;;;;;13.60;5.20;;;;;;;22.11;59.30;99161.25;4210727;28;22319;-46
2022/07/26 05:32:24;;;;;;;7.87;4.53;;;;;;;22.18;58.94;99162.97;4203021;28;20240;-46
2022/07/26 05:34:50;;;;;;;7.60;4.57;;;;;;;22.26;57.81;99163.34;4203774;28;20243;-49
2022/07/26 05:37:17;;;;;;;10.83;4.40;;;;;;;22.27;58.88;99159.59;4198016;28;20228;-44
2022/07/26 05:39:43;;;;;;;8.63;4.60;;;;;;;22.46;57.48;99151.13;4185854;28;20271;-46
2022/07/26 05:42:10;;;;;;;11.97;5.20;;;;;;;22.69;57.75;99150.84;4204215;28;20235;-45
2022/07/26 05:44:36;;;;;;;13.83;4.60;;;;;;;22.80;56.19;99154.44;4205912;28;20472;-45
2022/07/26 05:47:07;;;;;;;12.17;4.70;;;;;;;23.12;55.38;99159.91;4205190;28;22771;-45
2022/07/26 05:49:34;;;;;;;12.70;4.60;;;;;;;23.31;54.31;99163.06;4211507;28;20236;-61
2022/07/26 05:52:07;;;;;;;12.47;4.60;;;;;;;23.83;53.18;99168.84;4204894;28;22858;-63
2022/07/26 05:54:34;;;;;;;10.97;4.87;;;;;;;23.97;53.55;99176.25;4201022;28;20256;-61
2022/07/26 05:57:00;;;;;;;9.00;4.43;;;;;;;24.44;49.42;99175.41;4186151;28;22099;-62
2022/07/26 05:59:27;;;;;;;9.57;4.33;;;;;;;24.59;49.33;99184.72;4205413;28;20228;-61
2022/07/26 06:01:55;;;;;;;7.97;4.90;;;;;;;24.63;48.92;99180.34;4201422;28;20237;-63
2022/07/26 06:04:23;;;;;;;10.00;4.33;;;;;;;25.21;47.46;99188.34;4205035;28;21126;-63
2022/07/26 06:06:53;;;;;;;8.03;4.33;;;;;;;25.66;45.51;99184.78;4195891;28;20484;-66
2022/07/26 06:09:20;;;;;;;8.90;4.67;;;;;;;26.47;43.60;99177.44;4202474;28;20244;-64
2022/07/26 06:11:47;;;;;;;13.87;4.10;;;;;;;27.03;42.36;99189.16;4179513;28;20237;-65
2022/07/26 06:14:13;;;;;;;8.60;4.40;;;;;;;27.27;41.35;99190.06;4198783;28;23008;-66
2022/07/26 06:16:40;;;;;;;9.83;4.13;;;;;;;26.79;42.66;99195.31;4206362;28;20228;-62
2022/07/26 06:19:07;;;;;;;15.77;5.10;;;;;;;27.25;40.84;99186.00;4195078;28;20294;-64
2022/07/26 06:21:34;;;;;;;13.20;4.37;;;;;;;27.95;39.84;99193.81;4205920;28;23013;-63
2022/07/26 06:24:00;;;;;;;8.03;4.20;;;;;;;28.38;38.18;99191.16;4206322;28;22345;-64
2022/07/26 06:26:27;;;;;;;9.68;4.60;;;;;;;28.74;38.52;99187.94;4203466;28;20685;-65
2022/07/26 06:28:53;;;;;;;6.37;3.80;;;;;;;28.67;37.59;99187.50;4200062;28;21875;-65
2022/07/26 06:31:20;;;;;;;9.05;3.75;;;;;;;29.32;36.98;99187.63;4209519;28;20228;-63
2022/07/26 06:33:47;;;;;;;6.78;4.45;;;;;;;29.83;36.34;99194.16;4216439;28;20338;-63
2022/07/26 06:36:13;;;;;;;11.00;4.07;;;;;;;30.28;34.66;99191.63;4199210;28;20326;-66
2022/07/26 06:38:40;;;;;;;9.13;4.00;;;;;;;29.92;34.46;99188.75;4199021;28;23007;-63
2022/07/26 06:41:07;;;;;;;12.43;4.10;;;;;;;30.10;34.91;99190.59;4201789;28;20271;-63
2022/07/26 06:43:33;;;;;;;11.45;3.90;;;;;;;29.69;34.79;99182.31;4212525;28;20236;-64
2022/07/26 06:46:00;;;;;;;9.85;3.72;;;;;;;30.73;33.54;99190.94;4207167;28;20353;-63
2022/07/26 06:48:27;;;;;;;12.07;3.83;;;;;;;31.52;31.36;99190.47;4220179;28;23977;-64
2022/07/26 06:50:54;;;;;;;9.40;3.80;;;;;;;31.92;30.67;99198.75;4196917;28;20237;-66
2022/07/26 06:53:21;;;;;;;6.70;3.33;;;;;;;31.82;30.06;99210.00;4205597;28;20228;-66
2022/07/26 06:55:47;;;;;;;9.40;3.83;;;;;;;31.67;30.29;99203.78;4195012;28;20370;-64
2022/07/26 06:58:14;;;;;;;9.15;3.40;;;;;;;31.17;31.38;99201.19;4202389;28;21095;-61
2022/07/26 07:00:40;;;;;;;13.38;3.92;;;;;;;30.98;33.17;99215.13;4223222;28;20751;-65
2022/07/26 07:03:07;;;;;;;12.30;3.80;;;;;;;31.08;32.15;99225.06;4204206;28;21134;-63
2022/07/26 07:05:33;;;;;;;14.55;4.00;;;;;;;31.19;32.01;99225.59;4208232;28;25974;-62
2022/07/26 07:08:00;;;;;;;9.82;3.72;;;;;;;30.42;32.77;99213.59;4209784;28;21134;-62
2022/07/26 07:10:27;;;;;;;11.90;4.13;;;;;;;29.68;34.02;99206.19;4199011;28;20303;-65
2022/07/26 07:12:54;;;;;;;11.07;3.43;;;;;;;29.39;35.26;99211.91;4204896;28;22183;-68
2022/07/26 07:15:21;;;;;;;7.05;3.25;;;;;;;30.04;34.44;99231.03;4214572;28;23395;-52
2022/07/26 07:17:50;;;;;;;10.32;3.90;;;;;;;30.80;33.76;99230.59;4217253;28;20355;-70
2022/07/26 07:20:17;;;;;;;25.88;4.30;;;;;;;31.47;31.35;99224.41;4219090;28;20239;-69
2022/07/26 07:22:43;;;;;;;10.18;3.33;;;;;;;32.72;29.56;99223.47;4224227;28;25836;-63
2022/07/26 07:25:10;;;;;;;9.50;3.60;;;;;;;33.91;27.84;99235.09;4204186;28;22206;-62
2022/07/26 07:27:40;;;;;;;5.13;3.30;;;;;;;33.37;27.88;99224.47;4220703;28;26240;-65
2022/07/26 07:30:09;;;;;;;8.73;3.65;;;;;;;32.72;30.03;99221.53;4210145;28;20279;-61
2022/07/26 07:32:36;;;;;;;11.93;3.40;;;;;;;32.48;29.54;99205.44;4206169;28;20244;-69
2022/07/26 07:35:03;;;;;;;7.50;3.42;;;;;;;32.01;30.62;99198.78;4257605;28;25404;-71
2022/07/26 07:37:38;;;;;;;11.02;4.13;;;;;;;31.65;31.53;99206.06;4212358;28;20254;-74
2022/07/26 07:40:19;;;;;;;7.97;3.37;;;;;;;31.17;31.96;99201.19;4209443;28;25371;-67
2022/07/26 07:42:46;;;;;;;5.00;3.47;;;;;;;30.84;32.34;99193.19;4210353;28;22430;-68
2022/07/26 07:45:13;;;;;;;9.63;3.53;;;;;;;30.06;33.54;99195.06;4251049;28;20346;-69
2022/07/26 07:47:40;;;;;;;8.05;3.17;;;;;;;29.40;35.38;99189.66;4218119;28;20267;-71
2022/07/26 07:50:07;;;;;;;7.60;3.35;;;;;;;28.83;36.16;99180.69;4210165;28;20240;-72
2022/07/26 07:52:34;;;;;;;5.47;3.60;;;;;;;28.43;37.13;99177.38;4207243;28;20237;-72
2022/07/26 07:55:00;;;;;;;9.98;3.88;;;;;;;28.30;37.96;99180.84;4203758;28;20294;-69
2022/07/26 07:57:47;;;;;;;10.27;4.03;;;;;;;28.17;38.56;99180.44;4210617;28;22264;-70
2022/07/26 08:00:17;;;;;;;5.20;3.37;;;;;;;27.93;38.76;99196.88;4193653;28;20324;-69
2022/07/26 08:02:45;;;;;;;12.13;3.97;;;;;;;27.93;39.47;99191.41;4200756;28;20245;-68
2022/07/26 08:05:12;;;;;;;7.80;3.40;;;;;;;27.82;39.46;99194.50;4219032;28;21157;-70
2022/07/26 08:07:41;;;;;;;8.88;3.80;;;;;;;27.43;40.41;99190.75;4221424;28;20275;-70
2022/07/26 08:10:08;;;;;;;8.40;3.53;;;;;;;27.04;41.40;99180.69;4197934;28;20240;-69
2022/07/26 08:12:35;;;;;;;7.93;3.70;;;;;;;26.90;41.80;99176.94;4212486;28;20306;-70
2022/07/26 08:15:03;;;;;;;8.77;3.73;;;;;;;26.98;42.17;99173.63;4206744;28;20629;-60
2022/07/26 08:17:33;;;;;;;8.17;3.80;;;;;;;27.14;41.94;99169.66;4178099;28;20248;-64
2022/07/26 08:20:05;;;;;;;7.50;3.90;;;;;;;27.13;42.42;99164.47;4208125;28;20235;-64
2022/07/26 08:22:35;;;;;;;9.57;4.05;;;;;;;27.19;42.28;99177.00;4215485;28;22957;-63
2022/07/26 08:25:04;;;;;;;8.98;4.65;;;;;;;26.99;43.44;99169.78;4208525;28;20299;-48
2022/07/26 08:27:30;;;;;;;8.05;3.55;;;;;;;26.72;43.88;99167.53;4209980;28;20274;-66
2022/07/26 08:30:06;;;;;;;13.35;4.05;;;;;;;26.93;43.96;99160.81;4213707;28;20331;-53
2022/07/26 08:32:34;;;;;;;11.20;4.23;;;;;;;27.23;43.22;99169.91;4214202;28;20330;-75
2022/07/26 08:35:01;;;;;;;6.70;4.20;;;;;;;27.27;43.70;99173.69;4208719;28;20422;-73
2022/07/26 08:37:44;;;;;;;9.48;4.15;;;;;;;26.95;48.43;99161.34;4213542;28;20349;-71
2022/07/26 08:40:11;;;;;;;9.13;3.63;;;;;;;27.35;44.91;99173.06;4224760;28;20265;-73
2022/07/26 08:42:37;;;;;;;7.50;4.15;;;;;;;27.76;42.14;99180.88;4194343;28;22045;-73
2022/07/26 08:45:04;;;;;;;8.68;4.00;;;;;;;27.75;43.11;99176.50;4200201;28;20350;-52
2022/07/26 08:47:32;;;;;;;12.48;3.55;;;;;;;28.06;42.03;99183.59;4207539;28;20605;-75
2022/07/26 08:50:06;;;;;;;8.05;3.72;;;;;;;28.08;41.38;99193.13;4205491;28;22405;-74
2022/07/26 08:52:33;;;;;;;8.05;3.75;;;;;;;28.34;42.04;99198.31;4216062;28;20227;-77
2022/07/26 08:55:00;;;;;;;8.18;4.20;;;;;;;28.18;40.92;99198.47;4214308;28;20232;-81
2022/07/26 08:57:26;;;;;;;9.50;4.33;;;;;;;28.01;43.31;99197.34;4207252;28;21426;-76
2022/07/26 09:00:19;;;;;;;6.95;4.28;;;;;;;27.73;43.93;99199.78;4220573;28;21855;-73
2022/07/26 09:02:46;;;;;;;11.20;4.32;;;;;;;27.94;43.62;99198.50;4215498;28;21083;-76
2022/07/26 09:05:13;;;;;;;6.75;3.65;;;;;;;27.92;43.85;99200.69;4199538;28;21341;-70
2022/07/26 09:07:40;;;;;;;11.00;3.90;;;;;;;27.32;44.85;99197.41;4212445;28;22175;-75
2022/07/26 09:10:09;;;;;;;11.65;4.22;;;;;;;27.27;44.25;99195.53;4196640;28;20311;-73
2022/07/26 09:12:37;;;;;;;11.63;4.00;;;;;;;27.64;45.58;99209.72;4206170;28;22733;-75
2022/07/26 09:15:05;;;;;;;6.60;3.90;;;;;;;27.81;43.86;99214.72;4192198;28;21072;-75
2022/07/26 09:17:44;;;;;;;8.65;3.80;;;;;;;27.58;44.10;99217.97;4208786;28;21375;-75
2022/07/26 09:20:14;;;;;;;5.93;3.67;;;;;;;27.53;43.97;99222.63;4189129;28;20231;-75
2022/07/26 09:22:56;;;;;;;8.63;3.88;;;;;;;27.44;44.12;99224.34;4206283;28;20245;-79
2022/07/26 09:25:24;;;;;;;12.20;3.90;;;;;;;27.44;44.55;99216.16;4221394;28;20310;-71
2022/07/26 09:27:51;;;;;;;7.00;3.80;;;;;;;27.51;45.87;99219.38;4184547;28;23080;-76
2022/07/26 09:30:18;;;;;;;6.10;3.73;;;;;;;27.53;45.25;99226.22;4197702;28;20237;-70
2022/07/26 09:32:56;;;;;;;8.87;4.10;;;;;;;27.22;45.55;99230.28;4213314;28;20297;-70
2022/07/26 09:35:25;;;;;;;8.10;4.18;;;;;;;27.31;46.19;99231.31;4238408;28;20241;-73
2022/07/26 09:38:14;;;;;;;13.00;4.13;;;;;;;27.05;46.26;99225.19;4211552;28;20227;-75
2022/07/26 09:40:42;;;;;;;7.50;3.67;;;;;;;27.13;47.83;99233.56;4206804;28;20238;-72
2022/07/26 09:43:15;;;;;;;8.27;4.13;;;;;;;27.16;49.16;99232.22;4211668;28;20259;-75
2022/07/26 09:46:01;;;;;;;11.53;4.47;;;;;;;26.81;49.83;99233.22;4232328;28;20290;-77
2022/07/26 09:48:29;;;;;;;6.17;4.30;;;;;;;26.53;50.63;99236.34;4202551;28;20234;-75
2022/07/26 09:51:33;;;;;;;6.27;4.37;;;;;;;26.57;50.40;99233.09;4200245;28;22078;-75
2022/07/26 09:54:01;;;;;;;5.88;4.68;;;;;;;26.90;50.52;99232.38;4196309;28;20334;-73
2022/07/26 09:57:00;;;;;;;6.60;4.40;;;;;;;27.20;49.61;99229.75;4189901;28;20263;-72
2022/07/26 09:59:28;;;;;;;11.27;4.17;;;;;;;27.44;48.42;99238.00;4181714;28;20241;-74
2022/07/26 10:01:59;;;;;;;9.03;4.53;;;;;;;27.35;50.52;99243.31;4198103;28;20261;-74
2022/07/26 10:04:26;;;;;;;11.13;5.13;;;;;;;27.30;49.41;99243.31;4222007;28;21731;-75
2022/07/26 10:06:53;;;;;;;9.40;5.17;;;;;;;27.17;48.31;99239.28;4234936;28;20266;-77
2022/07/26 10:09:22;;;;;;;6.83;4.60;;;;;;;27.11;50.03;99245.88;4227234;28;22048;-74
2022/07/26 10:11:53;;;;;;;7.25;4.32;;;;;;;27.08;48.98;99241.00;4225141;28;22948;-79
2022/07/26 10:14:31;;;;;;;8.57;4.40;;;;;;;26.94;49.81;99241.63;4212156;28;20228;-77
2022/07/26 10:16:59;;;;;;;9.50;4.10;;;;;;;26.64;50.28;99247.25;4208000;28;20937;-79
2022/07/26 10:19:39;;;;;;;6.90;4.17;;;;;;;26.49;49.96;99245.38;4191506;28;20236;-77
2022/07/26 10:22:22;;;;;;;6.80;4.50;;;;;;;26.53;51.29;99251.91;4216385;28;20229;-75
2022/07/26 10:24:53;;;;;;;7.97;4.10;;;;;;;26.95;50.22;99247.91;4227233;28;20235;-76
2022/07/26 10:27:40;;;;;;;7.33;4.30;;;;;;;26.81;50.57;99253.19;4204167;28;22061;-75
2022/07/26 10:30:18;;;;;;;7.47;4.00;;;;;;;27.25;47.51;99268.75;4243799;28;20275;-77
2022/07/26 10:33:07;;;;;;;6.13;3.90;;;;;;;27.22;48.21;99261.13;4231571;28;20230;-67
2022/07/26 10:35:42;;;;;;;8.40;4.67;;;;;;;26.88;50.27;99261.06;4221045;28;20233;-74
2022/07/26 10:38:17;;;;;;;8.23;4.20;;;;;;;26.77;48.82;99273.13;4212486;28;20235;-75
2022/07/26 10:41:07;;;;;;;7.07;4.22;;;;;;;26.95;49.03;99272.50;4188593;28;20303;-77
2022/07/26 10:43:34;;;;;;;8.55;4.53;;;;;;;27.35;46.59;99282.34;4203907;28;20331;-74
2022/07/26 10:46:19;;;;;;;6.05;4.32;;;;;;;27.06;47.74;99270.50;4193227;28;20233;-74
2022/07/26 10:48:57;;;;;;;9.17;4.70;;;;;;;26.51;48.95;99271.28;4223728;28;21516;-76
2022/07/26 10:51:30;;;;;;;9.70;4.37;;;;;;;26.53;50.52;99274.56;4207804;28;22908;-69
2022/07/26 10:54:01;;;;;;;11.80;5.03;;;;;;;26.30;49.57;99269.72;4181831;28;26153;-73
2022/07/26 10:56:29;;;;;;;9.90;5.47;;;;;;;25.96;50.51;99269.53;4220741;28;22715;-74
2022/07/26 10:58:59;;;;;;;8.97;4.60;;;;;;;25.93;50.75;99270.09;4209274;28;22310;-70
2022/07/26 11:01:38;;;;;;;9.53;5.13;;;;;;;26.22;51.26;99283.91;4206749;28;20775;-73
2022/07/26 11:04:22;;;;;;;13.23;4.90;;;;;;;26.01;51.27;99278.53;4203385;28;20249;-77
2022/07/26 11:06:49;;;;;;;10.97;4.60;;;;;;;25.92;50.10;99291.09;4211769;28;20242;-71
2022/07/26 11:09:18;;;;;;;8.33;4.40;;;;;;;25.73;50.99;99289.94;4230581;28;20265;-79
2022/07/26 11:11:47;;;;;;;13.60;4.80;;;;;;;25.18;52.66;99295.91;4205115;28;20232;-76
2022/07/26 11:14:15;;;;;;;7.67;4.43;;;;;;;25.06;54.28;99293.41;4211316;28;21123;-77
2022/07/26 11:16:46;;;;;;;11.67;4.77;;;;;;;24.94;54.91;99302.91;4207459;28;20289;-74
2022/07/26 11:19:22;;;;;;;9.33;4.83;;;;;;;24.67;56.06;99303.06;4209182;28;20225;-76
2022/07/26 11:21:59;;;;;;;11.90;5.00;;;;;;;24.73;55.24;99310.19;4214059;28;20242;-75
2022/07/26 11:24:27;;;;;;;9.37;4.50;;;;;;;24.54;56.32;99309.81;4202671;28;20298;-77
2022/07/26 11:26:55;;;;;;;7.47;4.90;;;;;;;24.15;57.09;99310.09;4211750;28;20593;-76
2022/07/26 11:29:26;;;;;;;8.47;4.90;;;;;;;23.96;57.11;99321.38;4220188;28;21199;-76
2022/07/26 11:32:22;;;;;;;8.80;4.93;;;;;;;24.00;56.95;99317.06;4218343;28;21812;-75
2022/07/26 11:34:59;;;;;;;9.00;5.17;;;;;;;23.61;58.41;99319.16;4200340;28;22697;-76
2022/07/26 11:37:26;;;;;;;6.57;4.77;;;;;;;23.33;59.14;99323.78;4202922;28;20238;-76
2022/07/26 11:39:53;;;;;;;8.43;4.43;;;;;;;23.53;58.38;99325.91;4192294;28;20240;-75
2022/07/26 11:42:20;;;;;;;10.30;4.97;;;;;;;23.52;58.92;99326.97;4199266;28;22928;-79